Watervliet, MI (49098)

5:27 PM EDT on August 30, 2015 (GMT -0400)
East Paw Paw Lake | | Change Station
CLOSE
Current Station
Personal Weather Station
Location: Watervliet, MI
Elevation: 663 ft
Nearby Weather Stations

Elev 663 ft 42.21 °N, 86.25 °W | Updated 7 seconds ago

Overcast
Overcast
74.8 °F
Feels Like 76 °F
N
1.0
Wind Variable Wind from SW
Gusts 4.0 mph

Today
High -- | Low -- °F
--% Chance of Precip.
Yesterday
High -- | Low -- °F
Precip. -- in
7:08 AM 8:22 PM
Full, 98% visible
Pressure 30.04 in
Visibility 8.0 miles
Clouds Few 1200 ft
Overcast 2900 ft
Heat Index 76 °F
Dew Point 67 °F
Humidity 77%
Rainfall 0.00 in
Snow Depth Not available.
UV 1 out of 12
Pollen 9.30 out of 12
Air Quality Not available.
Flu Activity Not available.
SPECI KBEH 302112Z AUTO VRB04KT 8SM FEW012 OVC029 22/19 A3004 RMK AO2 T02220189 $
Pressure 30.04 in
Visibility 8.0 miles
Clouds Few 1200 ft
Overcast 2900 ft
Heat Index 76 °F
Dew Point 67 °F
Humidity 77%
Rainfall 0.00 in
Snow Depth Not available.
UV 1 out of 12
Pollen 9.30 out of 12
Air Quality Not available.
Flu Activity Not available.
SPECI KBEH 302112Z AUTO VRB04KT 8SM FEW012 OVC029 22/19 A3004 RMK AO2 T02220189 $

10-Day Weather Forecast

×

Almanac

Astronomy

Aug. 30, 2015 Rise Set
Actual Time
Civil Twilight
Nautical Twilight
Astronomical Twilight
Moon
Length of Visible Light
Length of Day
Tomorrow will be .
, % of the Moon is Illuminated

Today's Extremes

State Highs State Lows

Community

WunderPhotos

Upload Photos

1,851,063 photos uploaded!

WunderBlogs® & News

Nearby

Air Quality

  Air Quality AQ Index Pollutant
Not available.

Snow Depth

Station Depth Elevation

Earthquake Activity

City Distance Mag. Time & Date
Minimum magnitude displayed is 2.5.

Coastal Water Temperatures

Place Temperature

Stations

Nearby Weather Stations

Station Location Temp. Windchill Dew Point Humidity Wind Precip. Elev Updated Type